Terminal Aerodrome Forecast
Issued by NWS

Home | Current Version | Previous Version | Text Only | Print | Product List | Glossary On
Versions: 1 2 3 4 5 6 7 8 9 10 11 12 13 14 15
000
FTUS43 KGRB 061525 AAA
TAFCWA
TAF AMD
KCWA 061525Z 0615/0712 20012KT 5SM BR SCT007 OVC040
      TEMPO 0615/0617 36010G20KT 2SM SHRA BR BKN007
     FM061700 19011G18KT P6SM SCT025 OVC050
      TEMPO 0620/0624 1SM +TSRA OVC012CB
     FM070000 VRB03KT 5SM SHRA BR SCT011 BKN025
     FM070300 35009KT 6SM -SHRA BKN011 OVC020
     FM070600 36011G17KT P6SM SCT014 OVC030=

USA.gov is the U.S. government's official web portal to all federal, state and local government web resources and services.